createdAt,value
2022-07-30T00:01:29.043Z,97434.13
2022-07-30T00:04:32.523Z,97430.34
2022-07-30T00:07:35.698Z,97430.59
2022-07-30T00:10:39.180Z,97432.53
2022-07-30T00:13:43.249Z,97434.59
2022-07-30T00:16:46.009Z,97435.84
2022-07-30T00:19:48.908Z,97434.97
2022-07-30T00:22:51.710Z,97441.56
2022-07-30T00:25:54.511Z,97448.09
2022-07-30T00:28:58.894Z,97457.41
2022-07-30T00:32:01.734Z,97464.94
2022-07-30T00:35:05.034Z,97467.16
2022-07-30T00:38:07.785Z,97476.84
2022-07-30T00:41:10.537Z,97468.66
2022-07-30T00:44:14.596Z,97477.97
2022-07-30T00:47:17.327Z,97468.34
2022-07-30T00:50:20.137Z,97460.50
2022-07-30T00:53:24.507Z,97460.66
2022-07-30T00:56:27.412Z,97460.38
2022-07-30T00:59:32.288Z,97459.28
2022-07-30T01:02:35.079Z,97465.78
2022-07-30T01:05:37.821Z,97464.84
2022-07-30T01:08:40.673Z,97462.00
2022-07-30T01:11:44.131Z,97456.56
2022-07-30T01:14:48.312Z,97458.41
2022-07-30T01:17:53.281Z,97455.41
2022-07-30T01:21:04.319Z,97455.47
2022-07-30T01:24:17.706Z,97458.44
2022-07-30T01:27:22.911Z,97455.03
2022-07-30T01:30:29.290Z,97444.66
2022-07-30T01:33:33.732Z,97454.50
2022-07-30T01:36:37.773Z,97459.75
2022-07-30T01:39:41.139Z,97465.13
2022-07-30T01:42:48.160Z,97460.69
2022-07-30T01:45:52.898Z,97465.19
2022-07-30T01:48:57.789Z,97468.88
2022-07-30T01:52:03.835Z,97473.34
2022-07-30T01:55:11.513Z,97469.50
2022-07-30T01:58:24.088Z,97462.69
2022-07-30T02:01:30.129Z,97453.66
2022-07-30T02:04:35.412Z,97456.31
2022-07-30T02:07:43.516Z,97454.41
2022-07-30T02:10:50.193Z,97442.00
2022-07-30T02:13:58.249Z,97437.13
2022-07-30T02:17:04.271Z,97437.16
2022-07-30T02:20:10.494Z,97447.47
2022-07-30T02:23:16.662Z,97451.09
2022-07-30T02:26:24.140Z,97464.19
2022-07-30T02:29:32.227Z,97464.56
2022-07-30T02:32:38.426Z,97467.22
2022-07-30T02:35:42.201Z,97462.97
2022-07-30T02:38:45.596Z,97465.47
2022-07-30T02:41:50.538Z,97461.13
2022-07-30T02:44:55.736Z,97472.25
2022-07-30T02:48:03.128Z,97469.78
2022-07-30T02:51:07.644Z,97477.03
2022-07-30T02:54:12.612Z,97483.69
2022-07-30T02:57:17.905Z,97482.72
2022-07-30T03:00:23.041Z,97487.81
2022-07-30T03:03:29.413Z,97483.25
2022-07-30T03:06:33.848Z,97482.41
2022-07-30T03:09:52.046Z,97474.50
2022-07-30T03:12:57.592Z,97482.72
2022-07-30T03:16:05.797Z,97482.34
2022-07-30T03:19:12.298Z,97472.63
2022-07-30T03:22:18.418Z,97481.97
2022-07-30T03:25:24.586Z,97484.25
2022-07-30T03:28:28.933Z,97484.53
2022-07-30T03:31:36.502Z,97489.25
2022-07-30T03:34:43.810Z,97486.00
2022-07-30T03:37:48.321Z,97483.34
2022-07-30T03:40:52.114Z,97484.66
2022-07-30T03:43:55.837Z,97484.88
2022-07-30T03:47:01.521Z,97480.59
2022-07-30T03:50:08.406Z,97479.59
2022-07-30T03:53:13.106Z,97477.25
2022-07-30T03:56:36.588Z,97480.06
2022-07-30T03:59:43.039Z,97484.78
2022-07-30T04:02:48.492Z,97483.03
2022-07-30T04:05:51.205Z,97492.44
2022-07-30T04:08:53.932Z,97495.81
2022-07-30T04:11:57.446Z,97501.53
2022-07-30T04:15:03.434Z,97497.97
2022-07-30T04:18:29.298Z,97492.88
2022-07-30T04:21:34.492Z,97497.22
2022-07-30T04:24:39.750Z,97496.19
2022-07-30T04:28:02.766Z,97499.31
2022-07-30T04:31:06.379Z,97498.22
2022-07-30T04:34:14.674Z,97497.69
2022-07-30T04:37:18.986Z,97499.31
2022-07-30T04:40:21.906Z,97499.00
2022-07-30T04:43:24.645Z,97492.19
2022-07-30T04:46:27.447Z,97486.47
2022-07-30T04:49:32.559Z,97484.66
2022-07-30T04:52:36.834Z,97495.88
2022-07-30T04:55:43.765Z,97499.72
2022-07-30T04:58:47.052Z,97507.28
2022-07-30T05:01:52.351Z,97511.38
2022-07-30T05:04:58.558Z,97514.47
2022-07-30T05:08:03.652Z,97515.66
2022-07-30T05:11:07.209Z,97521.13
2022-07-30T05:14:10.081Z,97510.75
2022-07-30T05:17:12.829Z,97517.88
2022-07-30T05:20:16.997Z,97525.41
2022-07-30T05:23:39.983Z,97528.31
2022-07-30T05:27:01.282Z,97529.53
2022-07-30T05:30:04.906Z,97535.69
2022-07-30T05:33:15.755Z,97533.66
2022-07-30T05:36:20.662Z,97539.97
2022-07-30T05:39:23.390Z,97536.69
2022-07-30T05:42:28.884Z,97555.44
2022-07-30T05:45:34.076Z,97552.47
2022-07-30T05:48:36.879Z,97561.88
2022-07-30T05:51:40.938Z,97560.88
2022-07-30T05:54:44.706Z,97566.97
2022-07-30T05:58:05.846Z,97570.06
2022-07-30T06:01:08.867Z,97575.91
2022-07-30T06:04:11.734Z,97567.94
2022-07-30T06:07:20.734Z,97565.72
2022-07-30T06:10:23.562Z,97575.16
2022-07-30T06:13:26.785Z,97571.66
2022-07-30T06:16:30.946Z,97574.13
2022-07-30T06:19:33.727Z,97574.13
2022-07-30T06:22:37.769Z,97566.94
2022-07-30T06:25:46.244Z,97573.53
2022-07-30T06:28:48.986Z,97572.06
2022-07-30T06:32:11.952Z,97579.59
2022-07-30T06:35:15.354Z,97575.28
2022-07-30T06:38:20.093Z,97571.78
2022-07-30T06:41:31.476Z,97574.66
2022-07-30T06:44:34.987Z,97584.91
2022-07-30T06:47:50.040Z,97577.75
2022-07-30T06:50:54.298Z,97580.41
2022-07-30T06:53:58.431Z,97586.16
2022-07-30T06:57:10.000Z,97577.81
2022-07-30T07:00:13.402Z,97588.66
2022-07-30T07:03:19.717Z,97593.16
2022-07-30T07:06:23.336Z,97589.47
2022-07-30T07:09:27.420Z,97594.78
2022-07-30T07:12:52.890Z,97596.84
2022-07-30T07:15:57.881Z,97598.66
2022-07-30T07:19:02.330Z,97600.28
2022-07-30T07:22:05.348Z,97599.25
2022-07-30T07:25:10.499Z,97600.88
2022-07-30T07:28:13.746Z,97601.50
2022-07-30T07:32:05.528Z,97600.47
2022-07-30T07:34:42.634Z,97602.91
2022-07-30T07:37:46.196Z,97601.66
2022-07-30T07:40:57.163Z,97602.88
2022-07-30T07:43:59.972Z,97604.91
2022-07-30T07:47:08.239Z,97605.28
2022-07-30T07:50:18.159Z,97615.25
2022-07-30T07:53:20.895Z,97611.81
2022-07-30T07:56:25.913Z,97608.53
2022-07-30T07:59:36.210Z,97615.91
2022-07-30T08:02:46.341Z,97602.53
2022-07-30T08:05:55.856Z,97611.09
2022-07-30T08:09:44.647Z,97610.91
2022-07-30T08:13:48.440Z,97609.47
2022-07-30T08:16:57.574Z,97616.06
2022-07-30T08:20:16.836Z,97604.41
2022-07-30T08:23:22.242Z,97601.50
2022-07-30T08:26:25.490Z,97607.53
2022-07-30T08:29:30.113Z,97607.50
2022-07-30T08:32:33.279Z,97614.59
2022-07-30T08:35:36.452Z,97603.81
2022-07-30T08:38:51.280Z,97603.81
2022-07-30T08:41:54.934Z,97602.97
2022-07-30T08:44:59.244Z,97609.41
2022-07-30T08:48:03.039Z,97601.03
2022-07-30T08:51:17.319Z,97602.03
2022-07-30T08:54:40.551Z,97601.97
2022-07-30T08:57:44.365Z,97595.91
2022-07-30T09:00:48.469Z,97595.66
2022-07-30T09:03:51.225Z,97593.06
2022-07-30T09:06:53.994Z,97590.97
2022-07-30T09:09:57.455Z,97600.72
2022-07-30T09:13:01.767Z,97594.88
2022-07-30T09:16:07.986Z,97587.69
2022-07-30T09:19:16.203Z,97588.50
2022-07-30T09:22:19.662Z,97588.06
2022-07-30T09:26:01.008Z,97584.16
2022-07-30T09:29:23.649Z,97578.56
2022-07-30T09:32:56.445Z,97590.03
2022-07-30T09:36:19.417Z,97585.06
2022-07-30T09:39:56.313Z,97594.16
2022-07-30T09:43:25.947Z,97584.69
2022-07-30T09:46:45.446Z,97590.47
2022-07-30T09:50:07.465Z,97587.22
2022-07-30T09:53:11.912Z,97580.78
2022-07-30T09:56:30.224Z,97579.69
2022-07-30T09:59:35.439Z,97583.78
2022-07-30T10:02:40.328Z,97564.81
2022-07-30T10:06:03.627Z,97566.34
2022-07-30T10:09:14.103Z,97554.94
2022-07-30T10:12:24.158Z,97548.00
2022-07-30T10:15:32.583Z,97546.06
2022-07-30T10:18:36.315Z,97538.06
2022-07-30T10:22:01.050Z,97542.88
2022-07-30T10:25:49.228Z,97546.09
2022-07-30T10:29:33.465Z,97547.97
2022-07-30T10:32:38.850Z,97564.91
2022-07-30T10:35:45.221Z,97566.94
2022-07-30T10:38:55.038Z,97585.81
2022-07-30T10:42:12.200Z,97589.47
2022-07-30T10:45:19.637Z,97593.53
2022-07-30T10:48:23.243Z,97592.53
2022-07-30T10:51:46.591Z,97595.56
2022-07-30T10:54:54.819Z,97600.25
2022-07-30T10:58:00.162Z,97600.47
2022-07-30T11:01:02.953Z,97606.63
2022-07-30T11:04:20.329Z,97612.78
2022-07-30T11:07:31.636Z,97597.28
2022-07-30T11:10:40.627Z,97595.06
2022-07-30T11:13:55.345Z,97596.28
2022-07-30T11:17:01.919Z,97596.94
2022-07-30T11:20:12.372Z,97589.13
2022-07-30T11:23:39.163Z,97589.34
2022-07-30T11:26:53.468Z,97590.38
2022-07-30T11:29:56.430Z,97594.44
2022-07-30T11:33:32.103Z,97600.50
2022-07-30T11:36:36.831Z,97606.25
2022-07-30T11:40:08.015Z,97612.66
2022-07-30T11:43:34.689Z,97605.03
2022-07-30T11:46:49.597Z,97615.44
2022-07-30T11:49:52.693Z,97614.78
2022-07-30T11:52:57.734Z,97622.19
2022-07-30T11:56:02.444Z,97614.88
2022-07-30T11:59:08.317Z,97626.91
2022-07-30T12:02:11.044Z,97628.72
2022-07-30T12:05:13.847Z,97627.50
2022-07-30T12:08:33.466Z,97628.94
2022-07-30T12:11:39.121Z,97628.91
2022-07-30T12:14:43.233Z,97633.13
2022-07-30T12:17:47.085Z,97634.00
2022-07-30T12:20:54.942Z,97628.25
2022-07-30T12:24:02.607Z,97635.06
2022-07-30T12:27:06.391Z,97643.41
2022-07-30T12:30:11.361Z,97645.66
2022-07-30T12:33:15.282Z,97638.50
2022-07-30T12:36:30.712Z,97637.72
2022-07-30T12:39:33.469Z,97631.38
2022-07-30T12:42:36.335Z,97637.28
2022-07-30T12:45:51.791Z,97638.06
2022-07-30T12:49:07.628Z,97630.75
2022-07-30T12:52:28.465Z,97619.63
2022-07-30T12:55:33.850Z,97621.03
2022-07-30T12:58:37.704Z,97617.19
2022-07-30T13:01:42.637Z,97612.66
2022-07-30T13:05:00.166Z,97605.72
2022-07-30T13:08:14.460Z,97598.28
2022-07-30T13:11:17.998Z,97609.31
2022-07-30T13:14:23.640Z,97605.03
2022-07-30T13:17:33.868Z,97601.22
2022-07-30T13:20:38.940Z,97603.00
2022-07-30T13:23:42.891Z,97594.63
2022-07-30T13:26:45.617Z,97586.06
2022-07-30T13:29:48.366Z,97586.22
2022-07-30T13:32:52.405Z,97591.97
2022-07-30T13:35:55.272Z,97590.41
2022-07-30T13:38:57.986Z,97603.47
2022-07-30T13:42:00.708Z,97593.22
2022-07-30T13:45:03.550Z,97590.06
2022-07-30T13:48:07.854Z,97580.44
2022-07-30T13:51:10.681Z,97578.22
2022-07-30T13:54:13.900Z,97575.56
2022-07-30T13:57:16.719Z,97572.41
2022-07-30T14:00:19.559Z,97583.13
2022-07-30T14:03:23.657Z,97587.41
2022-07-30T14:06:26.347Z,97583.88
2022-07-30T14:09:29.161Z,97588.13
2022-07-30T14:12:31.930Z,97585.66
2022-07-30T14:15:35.470Z,97586.31
2022-07-30T14:18:40.027Z,97587.59
2022-07-30T14:21:42.845Z,97583.63
2022-07-30T14:24:48.634Z,97581.75
2022-07-30T14:27:51.768Z,97581.38
2022-07-30T14:30:54.808Z,97579.03
2022-07-30T14:33:58.917Z,97569.59
2022-07-30T14:37:01.894Z,97569.22
2022-07-30T14:40:05.744Z,97573.13
2022-07-30T14:43:08.463Z,97571.22
2022-07-30T14:46:11.116Z,97570.91
2022-07-30T14:49:16.012Z,97574.56
2022-07-30T14:52:18.893Z,97582.75
2022-07-30T14:55:21.711Z,97580.91
2022-07-30T14:58:24.694Z,97578.19
2022-07-30T15:01:27.427Z,97580.94
2022-07-30T15:04:31.699Z,97579.31
2022-07-30T15:07:34.698Z,97587.91
2022-07-30T15:10:38.061Z,97584.78
2022-07-30T15:13:49.978Z,97581.28
2022-07-30T15:16:53.434Z,97572.69
2022-07-30T15:19:57.536Z,97573.09
2022-07-30T15:23:00.363Z,97558.28
2022-07-30T15:26:03.035Z,97558.34
2022-07-30T15:29:08.275Z,97561.56
2022-07-30T15:32:13.194Z,97563.84
2022-07-30T15:35:17.364Z,97565.09
2022-07-30T15:38:20.161Z,97563.19
2022-07-30T15:41:22.881Z,97563.13
2022-07-30T15:44:25.991Z,97562.81
2022-07-30T15:47:29.517Z,97551.34
2022-07-30T15:50:33.748Z,97550.84
2022-07-30T15:53:36.522Z,97539.53
2022-07-30T15:56:39.205Z,97545.00
2022-07-30T15:59:42.160Z,97548.69
2022-07-30T16:02:44.885Z,97547.66
2022-07-30T16:05:52.459Z,97550.69
2022-07-30T16:08:55.538Z,97554.19
2022-07-30T16:11:59.372Z,97553.22
2022-07-30T16:15:02.310Z,97550.31
2022-07-30T16:18:06.278Z,97551.16
2022-07-30T16:21:10.684Z,97549.72
2022-07-30T16:24:13.389Z,97553.94
2022-07-30T16:27:16.123Z,97549.66
2022-07-30T16:30:18.898Z,97549.44
2022-07-30T16:33:21.769Z,97559.06
2022-07-30T16:36:25.973Z,97555.94
2022-07-30T16:39:28.636Z,97563.94
2022-07-30T16:42:31.337Z,97567.50
2022-07-30T16:45:34.208Z,97558.91
2022-07-30T16:48:36.932Z,97557.66
2022-07-30T16:51:42.807Z,97549.44
2022-07-30T16:54:45.537Z,97560.56
2022-07-30T16:57:48.267Z,97553.72
2022-07-30T17:00:51.081Z,97552.69
2022-07-30T17:03:53.826Z,97555.94
2022-07-30T17:06:57.881Z,97565.56
2022-07-30T17:10:00.568Z,97561.72
2022-07-30T17:13:03.416Z,97564.53
2022-07-30T17:16:07.327Z,97574.38
2022-07-30T17:19:10.113Z,97581.41
2022-07-30T17:22:14.177Z,97582.38
2022-07-30T17:25:16.992Z,97578.09
2022-07-30T17:28:26.835Z,97583.03
2022-07-30T17:31:30.004Z,97590.59
2022-07-30T17:34:32.834Z,97594.06
2022-07-30T17:37:37.039Z,97590.44
2022-07-30T17:40:39.823Z,97594.88
2022-07-30T17:43:42.593Z,97604.34
2022-07-30T17:46:45.383Z,97604.34
2022-07-30T17:49:48.337Z,97603.91
2022-07-30T17:52:52.500Z,97609.91
2022-07-30T17:55:57.413Z,97605.16
2022-07-30T17:59:00.885Z,97605.41
2022-07-30T18:02:04.717Z,97606.44
2022-07-30T18:05:08.889Z,97592.66
2022-07-30T18:08:12.992Z,97590.44
2022-07-30T18:11:15.883Z,97573.13
2022-07-30T18:14:18.721Z,97578.22
2022-07-30T18:17:21.470Z,97575.47
2022-07-30T18:20:24.447Z,97579.44
2022-07-30T18:23:34.611Z,97585.84
2022-07-30T18:26:38.660Z,97588.00
2022-07-30T18:29:41.899Z,97584.22
2022-07-30T18:32:44.900Z,97580.88
2022-07-30T18:35:47.701Z,97588.66
2022-07-30T18:38:51.925Z,97587.81
2022-07-30T18:41:54.694Z,97589.53
2022-07-30T18:44:57.728Z,97592.13
2022-07-30T18:48:00.484Z,97598.47
2022-07-30T18:51:03.978Z,97600.09
2022-07-30T18:54:08.261Z,97601.13
2022-07-30T18:57:14.336Z,97595.19
2022-07-30T19:00:32.757Z,97604.66
2022-07-30T19:03:38.517Z,97610.94
2022-07-30T19:06:41.286Z,97617.81
2022-07-30T19:09:46.129Z,97615.16
2022-07-30T19:12:48.879Z,97617.69
2022-07-30T19:15:51.985Z,97618.78
2022-07-30T19:18:54.927Z,97617.09
2022-07-30T19:21:58.022Z,97617.09
2022-07-30T19:25:02.091Z,97616.47
2022-07-30T19:28:06.142Z,97623.94
2022-07-30T19:31:08.974Z,97632.13
2022-07-30T19:34:12.068Z,97635.75
2022-07-30T19:37:14.768Z,97631.88
2022-07-30T19:40:19.626Z,97631.16
2022-07-30T19:43:24.309Z,97629.91
2022-07-30T19:46:27.620Z,97628.91
2022-07-30T19:49:32.441Z,97620.88
2022-07-30T19:52:37.686Z,97625.25
2022-07-30T19:55:42.324Z,97630.91
2022-07-30T19:58:45.059Z,97625.94
2022-07-30T20:01:51.870Z,97627.91
2022-07-30T20:04:56.092Z,97626.94
2022-07-30T20:07:58.875Z,97635.78
2022-07-30T20:11:06.045Z,97628.88
2022-07-30T20:14:08.733Z,97633.56
2022-07-30T20:17:11.608Z,97623.97
2022-07-30T20:20:14.704Z,97632.25
2022-07-30T20:23:17.521Z,97623.84
2022-07-30T20:26:25.061Z,97636.81
2022-07-30T20:29:31.756Z,97634.06
2022-07-30T20:32:34.550Z,97641.34
2022-07-30T20:35:37.470Z,97639.72
2022-07-30T20:38:44.358Z,97633.56
2022-07-30T20:41:48.547Z,97641.22
2022-07-30T20:44:56.745Z,97629.34
2022-07-30T20:47:59.462Z,97635.28
2022-07-30T20:51:06.414Z,97632.09
2022-07-30T20:54:12.223Z,97639.88
2022-07-30T20:57:16.261Z,97632.28
2022-07-30T21:00:33.927Z,97637.03
2022-07-30T21:03:37.862Z,97639.47
2022-07-30T21:06:44.316Z,97647.81
2022-07-30T21:09:51.885Z,97650.47
2022-07-30T21:12:58.748Z,97644.00
2022-07-30T21:16:16.010Z,97657.25
2022-07-30T21:19:19.356Z,97653.59
2022-07-30T21:22:25.451Z,97647.25
2022-07-30T21:25:33.156Z,97647.66
2022-07-30T21:28:37.437Z,97645.63
2022-07-30T21:32:01.680Z,97644.19
2022-07-30T21:35:08.241Z,97648.06
2022-07-30T21:38:11.337Z,97649.31
2022-07-30T21:41:15.279Z,97644.38
2022-07-30T21:44:19.447Z,97648.88
2022-07-30T21:47:22.843Z,97646.84
2022-07-30T21:50:25.999Z,97645.16
2022-07-30T21:53:44.675Z,97645.16
2022-07-30T21:56:51.609Z,97656.41
2022-07-30T21:59:55.795Z,97661.69
2022-07-30T22:02:58.472Z,97657.63
2022-07-30T22:06:02.728Z,97651.31
2022-07-30T22:09:19.219Z,97650.66
2022-07-30T22:12:31.225Z,97653.72
2022-07-30T22:15:35.445Z,97657.41
2022-07-30T22:18:38.164Z,97659.81
2022-07-30T22:21:41.878Z,97657.34
2022-07-30T22:24:44.598Z,97663.06
2022-07-30T22:27:55.918Z,97658.53
2022-07-30T22:31:01.239Z,97657.34
2022-07-30T22:34:11.203Z,97655.75
2022-07-30T22:37:17.339Z,97655.75
2022-07-30T22:40:24.746Z,97660.84
2022-07-30T22:43:35.503Z,97662.47
2022-07-30T22:46:45.118Z,97667.13
2022-07-30T22:49:59.186Z,97663.50
2022-07-30T22:53:23.279Z,97664.31
2022-07-30T22:56:25.367Z,97662.69
2022-07-30T22:59:29.162Z,97659.22
2022-07-30T23:02:52.390Z,97658.19
2022-07-30T23:05:56.586Z,97664.28
2022-07-30T23:08:59.717Z,97656.53
2022-07-30T23:12:02.881Z,97658.94
2022-07-30T23:15:07.489Z,97658.53
2022-07-30T23:18:11.531Z,97657.69
2022-07-30T23:21:15.025Z,97657.69
2022-07-30T23:24:17.850Z,97656.09
2022-07-30T23:27:21.049Z,97663.78
2022-07-30T23:30:24.565Z,97664.63
2022-07-30T23:33:34.343Z,97667.47
2022-07-30T23:36:38.004Z,97663.03
2022-07-30T23:39:40.717Z,97667.72
2022-07-30T23:42:43.380Z,97663.41
2022-07-30T23:45:46.486Z,97676.84
2022-07-30T23:48:50.574Z,97668.66
2022-07-30T23:51:53.323Z,97672.72
2022-07-30T23:54:56.155Z,97676.41
2022-07-30T23:58:00.104Z,97673.38
